sensor_id;sensor_type;location;lat;lon;timestamp;P1;durP1;ratioP1;P2;durP2;ratioP2
61330;SDS011;71993;52.478;-1.918;2023-09-12T00:00:29;5.30;;;2.38;;
61330;SDS011;71993;52.478;-1.918;2023-09-12T00:03:00;5.47;;;2.40;;
61330;SDS011;71993;52.478;-1.918;2023-09-12T00:05:31;3.00;;;2.10;;
61330;SDS011;71993;52.478;-1.918;2023-09-12T00:08:02;3.45;;;2.10;;
61330;SDS011;71993;52.478;-1.918;2023-09-12T00:10:33;5.85;;;2.22;;
61330;SDS011;71993;52.478;-1.918;2023-09-12T00:13:06;3.53;;;2.42;;
61330;SDS011;71993;52.478;-1.918;2023-09-12T00:15:36;3.38;;;1.90;;
61330;SDS011;71993;52.478;-1.918;2023-09-12T00:18:07;5.68;;;1.98;;
61330;SDS011;71993;52.478;-1.918;2023-09-12T00:20:38;4.28;;;1.92;;
61330;SDS011;71993;52.478;-1.918;2023-09-12T00:23:08;5.45;;;1.90;;
61330;SDS011;71993;52.478;-1.918;2023-09-12T00:25:39;5.35;;;2.38;;
61330;SDS011;71993;52.478;-1.918;2023-09-12T00:28:12;5.32;;;2.28;;
61330;SDS011;71993;52.478;-1.918;2023-09-12T00:30:43;3.85;;;2.10;;
61330;SDS011;71993;52.478;-1.918;2023-09-12T00:33:13;3.22;;;2.20;;
61330;SDS011;71993;52.478;-1.918;2023-09-12T00:35:44;6.40;;;2.15;;
61330;SDS011;71993;52.478;-1.918;2023-09-12T00:38:14;2.75;;;1.83;;
61330;SDS011;71993;52.478;-1.918;2023-09-12T00:40:45;4.70;;;2.00;;
61330;SDS011;71993;52.478;-1.918;2023-09-12T00:43:19;4.53;;;2.10;;
61330;SDS011;71993;52.478;-1.918;2023-09-12T00:45:50;3.78;;;2.00;;
61330;SDS011;71993;52.478;-1.918;2023-09-12T00:48:20;3.47;;;2.10;;
61330;SDS011;71993;52.478;-1.918;2023-09-12T00:50:52;3.40;;;2.00;;
61330;SDS011;71993;52.478;-1.918;2023-09-12T00:53:22;4.07;;;2.08;;
61330;SDS011;71993;52.478;-1.918;2023-09-12T00:55:54;3.88;;;1.83;;
61330;SDS011;71993;52.478;-1.918;2023-09-12T00:58:27;2.35;;;1.80;;
61330;SDS011;71993;52.478;-1.918;2023-09-12T01:00:58;3.80;;;2.17;;
61330;SDS011;71993;52.478;-1.918;2023-09-12T01:03:29;2.97;;;2.00;;
61330;SDS011;71993;52.478;-1.918;2023-09-12T01:06:00;2.97;;;1.67;;
61330;SDS011;71993;52.478;-1.918;2023-09-12T01:08:33;2.75;;;2.00;;
61330;SDS011;71993;52.478;-1.918;2023-09-12T01:11:04;3.45;;;2.05;;
61330;SDS011;71993;52.478;-1.918;2023-09-12T01:13:38;3.33;;;1.80;;
61330;SDS011;71993;52.478;-1.918;2023-09-12T01:16:09;10.43;;;2.10;;
61330;SDS011;71993;52.478;-1.918;2023-09-12T01:18:40;2.78;;;1.92;;
61330;SDS011;71993;52.478;-1.918;2023-09-12T01:21:16;5.88;;;1.90;;
61330;SDS011;71993;52.478;-1.918;2023-09-12T01:23:54;4.70;;;2.00;;
61330;SDS011;71993;52.478;-1.918;2023-09-12T01:26:29;2.80;;;2.00;;
61330;SDS011;71993;52.478;-1.918;2023-09-12T01:29:02;6.90;;;1.88;;
61330;SDS011;71993;52.478;-1.918;2023-09-12T01:31:34;6.80;;;1.90;;
61330;SDS011;71993;52.478;-1.918;2023-09-12T01:34:10;2.90;;;1.80;;
61330;SDS011;71993;52.478;-1.918;2023-09-12T01:36:41;2.22;;;1.80;;
61330;SDS011;71993;52.478;-1.918;2023-09-12T01:39:12;2.67;;;1.80;;
61330;SDS011;71993;52.478;-1.918;2023-09-12T01:41:43;2.78;;;1.92;;
61330;SDS011;71993;52.478;-1.918;2023-09-12T01:44:19;4.10;;;2.00;;
61330;SDS011;71993;52.478;-1.918;2023-09-12T01:46:51;3.88;;;2.22;;
61330;SDS011;71993;52.478;-1.918;2023-09-12T01:49:23;5.28;;;2.30;;
61330;SDS011;71993;52.478;-1.918;2023-09-12T01:51:54;3.60;;;1.90;;
61330;SDS011;71993;52.478;-1.918;2023-09-12T01:54:26;2.88;;;1.92;;
61330;SDS011;71993;52.478;-1.918;2023-09-12T01:56:57;3.70;;;2.20;;
61330;SDS011;71993;52.478;-1.918;2023-09-12T01:59:31;3.50;;;2.00;;
61330;SDS011;71993;52.478;-1.918;2023-09-12T02:02:01;3.70;;;1.98;;
61330;SDS011;71993;52.478;-1.918;2023-09-12T02:04:32;3.70;;;2.08;;
61330;SDS011;71993;52.478;-1.918;2023-09-12T02:07:03;3.63;;;2.28;;
61330;SDS011;71993;52.478;-1.918;2023-09-12T02:09:34;4.57;;;2.40;;
61330;SDS011;71993;52.478;-1.918;2023-09-12T02:12:06;3.85;;;2.05;;
61330;SDS011;71993;52.478;-1.918;2023-09-12T02:14:39;3.35;;;1.92;;
61330;SDS011;71993;52.478;-1.918;2023-09-12T02:17:10;3.83;;;1.92;;
61330;SDS011;71993;52.478;-1.918;2023-09-12T02:19:40;2.40;;;1.90;;
61330;SDS011;71993;52.478;-1.918;2023-09-12T02:22:11;2.72;;;1.90;;
61330;SDS011;71993;52.478;-1.918;2023-09-12T02:24:41;5.43;;;1.83;;
61330;SDS011;71993;52.478;-1.918;2023-09-12T02:27:12;2.58;;;1.98;;
61330;SDS011;71993;52.478;-1.918;2023-09-12T02:29:45;2.40;;;1.77;;
61330;SDS011;71993;52.478;-1.918;2023-09-12T02:32:16;2.65;;;2.10;;
61330;SDS011;71993;52.478;-1.918;2023-09-12T02:34:46;2.10;;;1.60;;
61330;SDS011;71993;52.478;-1.918;2023-09-12T02:37:16;4.10;;;1.92;;
61330;SDS011;71993;52.478;-1.918;2023-09-12T02:39:47;2.85;;;1.80;;
61330;SDS011;71993;52.478;-1.918;2023-09-12T02:42:18;3.58;;;2.20;;
61330;SDS011;71993;52.478;-1.918;2023-09-12T02:44:51;2.78;;;1.95;;
61330;SDS011;71993;52.478;-1.918;2023-09-12T02:47:22;3.28;;;2.20;;
61330;SDS011;71993;52.478;-1.918;2023-09-12T02:49:53;2.38;;;2.00;;
61330;SDS011;71993;52.478;-1.918;2023-09-12T02:52:24;3.33;;;2.05;;
61330;SDS011;71993;52.478;-1.918;2023-09-12T02:54:56;3.17;;;2.10;;
61330;SDS011;71993;52.478;-1.918;2023-09-12T02:57:26;3.15;;;2.00;;
61330;SDS011;71993;52.478;-1.918;2023-09-12T03:00:00;3.35;;;2.13;;
61330;SDS011;71993;52.478;-1.918;2023-09-12T03:02:34;3.20;;;2.00;;
61330;SDS011;71993;52.478;-1.918;2023-09-12T03:05:05;3.15;;;2.00;;
61330;SDS011;71993;52.478;-1.918;2023-09-12T03:07:36;2.85;;;1.92;;
61330;SDS011;71993;52.478;-1.918;2023-09-12T03:10:07;4.10;;;1.83;;
61330;SDS011;71993;52.478;-1.918;2023-09-12T03:12:37;2.15;;;1.90;;
61330;SDS011;71993;52.478;-1.918;2023-09-12T03:15:11;2.58;;;1.80;;
61330;SDS011;71993;52.478;-1.918;2023-09-12T03:17:41;2.08;;;1.70;;
61330;SDS011;71993;52.478;-1.918;2023-09-12T03:20:12;2.30;;;1.77;;
61330;SDS011;71993;52.478;-1.918;2023-09-12T03:22:43;2.53;;;1.80;;
61330;SDS011;71993;52.478;-1.918;2023-09-12T03:25:13;1.98;;;1.73;;
61330;SDS011;71993;52.478;-1.918;2023-09-12T03:27:44;2.00;;;1.60;;
61330;SDS011;71993;52.478;-1.918;2023-09-12T03:30:17;2.95;;;1.40;;
61330;SDS011;71993;52.478;-1.918;2023-09-12T03:32:47;2.33;;;1.50;;
61330;SDS011;71993;52.478;-1.918;2023-09-12T03:35:18;2.88;;;1.70;;
61330;SDS011;71993;52.478;-1.918;2023-09-12T03:37:48;3.60;;;1.70;;
61330;SDS011;71993;52.478;-1.918;2023-09-12T03:40:19;2.35;;;1.58;;
61330;SDS011;71993;52.478;-1.918;2023-09-12T03:42:49;2.65;;;1.80;;
61330;SDS011;71993;52.478;-1.918;2023-09-12T03:45:23;2.40;;;1.67;;
61330;SDS011;71993;52.478;-1.918;2023-09-12T03:47:54;1.70;;;1.42;;
61330;SDS011;71993;52.478;-1.918;2023-09-12T03:50:24;2.25;;;1.50;;
61330;SDS011;71993;52.478;-1.918;2023-09-12T03:52:56;2.42;;;1.48;;
61330;SDS011;71993;52.478;-1.918;2023-09-12T03:55:26;2.20;;;1.77;;
61330;SDS011;71993;52.478;-1.918;2023-09-12T03:57:57;2.92;;;1.80;;
61330;SDS011;71993;52.478;-1.918;2023-09-12T04:00:30;3.20;;;1.70;;
61330;SDS011;71993;52.478;-1.918;2023-09-12T04:03:01;3.03;;;1.77;;
61330;SDS011;71993;52.478;-1.918;2023-09-12T04:05:31;1.90;;;1.70;;
61330;SDS011;71993;52.478;-1.918;2023-09-12T04:08:02;2.75;;;1.77;;
61330;SDS011;71993;52.478;-1.918;2023-09-12T04:10:33;2.83;;;1.60;;
61330;SDS011;71993;52.478;-1.918;2023-09-12T04:13:03;2.85;;;1.70;;
61330;SDS011;71993;52.478;-1.918;2023-09-12T04:15:36;3.35;;;1.50;;
61330;SDS011;71993;52.478;-1.918;2023-09-12T04:18:07;3.05;;;1.92;;
61330;SDS011;71993;52.478;-1.918;2023-09-12T04:20:38;2.65;;;1.60;;
61330;SDS011;71993;52.478;-1.918;2023-09-12T04:23:09;2.55;;;1.65;;
61330;SDS011;71993;52.478;-1.918;2023-09-12T04:25:41;3.80;;;1.80;;
61330;SDS011;71993;52.478;-1.918;2023-09-12T04:28:12;3.47;;;1.75;;
61330;SDS011;71993;52.478;-1.918;2023-09-12T04:30:45;2.30;;;1.50;;
61330;SDS011;71993;52.478;-1.918;2023-09-12T04:33:16;4.03;;;1.75;;
61330;SDS011;71993;52.478;-1.918;2023-09-12T04:35:46;2.70;;;1.70;;
61330;SDS011;71993;52.478;-1.918;2023-09-12T04:38:17;2.25;;;1.52;;
61330;SDS011;71993;52.478;-1.918;2023-09-12T04:40:52;3.33;;;1.60;;
61330;SDS011;71993;52.478;-1.918;2023-09-12T04:43:24;3.13;;;1.70;;
61330;SDS011;71993;52.478;-1.918;2023-09-12T04:45:57;2.25;;;1.40;;
61330;SDS011;71993;52.478;-1.918;2023-09-12T04:48:28;2.08;;;1.50;;
61330;SDS011;71993;52.478;-1.918;2023-09-12T04:50:58;3.58;;;1.80;;
61330;SDS011;71993;52.478;-1.918;2023-09-12T04:53:29;1.92;;;1.60;;
61330;SDS011;71993;52.478;-1.918;2023-09-12T04:56:03;3.75;;;1.63;;
61330;SDS011;71993;52.478;-1.918;2023-09-12T04:58:34;2.13;;;1.50;;
61330;SDS011;71993;52.478;-1.918;2023-09-12T05:01:07;2.38;;;1.40;;
61330;SDS011;71993;52.478;-1.918;2023-09-12T05:03:38;2.38;;;1.50;;
61330;SDS011;71993;52.478;-1.918;2023-09-12T05:06:08;2.78;;;1.48;;
61330;SDS011;71993;52.478;-1.918;2023-09-12T05:08:39;1.83;;;1.45;;
61330;SDS011;71993;52.478;-1.918;2023-09-12T05:11:09;2.63;;;1.65;;
61330;SDS011;71993;52.478;-1.918;2023-09-12T05:13:40;2.92;;;1.75;;
61330;SDS011;71993;52.478;-1.918;2023-09-12T05:16:14;3.47;;;1.80;;
61330;SDS011;71993;52.478;-1.918;2023-09-12T05:18:44;2.17;;;1.70;;
61330;SDS011;71993;52.478;-1.918;2023-09-12T05:21:16;3.30;;;1.60;;
61330;SDS011;71993;52.478;-1.918;2023-09-12T05:23:47;2.60;;;1.80;;
61330;SDS011;71993;52.478;-1.918;2023-09-12T05:26:15;2.00;;;1.70;;
61330;SDS011;71993;52.478;-1.918;2023-09-12T05:28:45;2.78;;;1.73;;
61330;SDS011;71993;52.478;-1.918;2023-09-12T05:31:19;4.05;;;2.00;;
61330;SDS011;71993;52.478;-1.918;2023-09-12T05:33:49;3.28;;;1.80;;
61330;SDS011;71993;52.478;-1.918;2023-09-12T05:36:20;2.85;;;2.00;;
61330;SDS011;71993;52.478;-1.918;2023-09-12T05:38:50;2.83;;;1.98;;
61330;SDS011;71993;52.478;-1.918;2023-09-12T05:41:21;3.05;;;1.92;;
61330;SDS011;71993;52.478;-1.918;2023-09-12T05:43:52;3.35;;;1.98;;
61330;SDS011;71993;52.478;-1.918;2023-09-12T05:46:25;3.03;;;2.00;;
61330;SDS011;71993;52.478;-1.918;2023-09-12T05:48:57;4.75;;;1.90;;
61330;SDS011;71993;52.478;-1.918;2023-09-12T05:51:27;3.35;;;1.80;;
61330;SDS011;71993;52.478;-1.918;2023-09-12T05:53:58;2.88;;;2.20;;
61330;SDS011;71993;52.478;-1.918;2023-09-12T05:56:30;2.67;;;1.75;;
61330;SDS011;71993;52.478;-1.918;2023-09-12T05:59:01;2.97;;;2.00;;
61330;SDS011;71993;52.478;-1.918;2023-09-12T06:01:34;2.65;;;1.90;;
61330;SDS011;71993;52.478;-1.918;2023-09-12T06:04:05;2.58;;;1.85;;
61330;SDS011;71993;52.478;-1.918;2023-09-12T06:06:36;3.40;;;2.00;;
61330;SDS011;71993;52.478;-1.918;2023-09-12T06:09:07;3.35;;;2.00;;
61330;SDS011;71993;52.478;-1.918;2023-09-12T06:11:38;2.60;;;1.85;;
61330;SDS011;71993;52.478;-1.918;2023-09-12T06:14:08;2.83;;;2.15;;
61330;SDS011;71993;52.478;-1.918;2023-09-12T06:16:41;3.78;;;1.90;;
61330;SDS011;71993;52.478;-1.918;2023-09-12T06:19:12;3.22;;;2.00;;
61330;SDS011;71993;52.478;-1.918;2023-09-12T06:21:42;2.55;;;2.00;;
61330;SDS011;71993;52.478;-1.918;2023-09-12T06:24:14;3.80;;;1.92;;
61330;SDS011;71993;52.478;-1.918;2023-09-12T06:26:44;2.40;;;1.90;;
61330;SDS011;71993;52.478;-1.918;2023-09-12T06:29:15;2.35;;;1.73;;
61330;SDS011;71993;52.478;-1.918;2023-09-12T06:31:48;2.65;;;1.50;;
61330;SDS011;71993;52.478;-1.918;2023-09-12T06:34:19;2.65;;;1.70;;
61330;SDS011;71993;52.478;-1.918;2023-09-12T06:36:49;2.20;;;1.80;;
61330;SDS011;71993;52.478;-1.918;2023-09-12T06:39:20;4.47;;;1.85;;
61330;SDS011;71993;52.478;-1.918;2023-09-12T06:41:51;2.75;;;1.90;;
61330;SDS011;71993;52.478;-1.918;2023-09-12T06:44:22;3.00;;;1.90;;
61330;SDS011;71993;52.478;-1.918;2023-09-12T06:46:55;2.88;;;1.70;;
61330;SDS011;71993;52.478;-1.918;2023-09-12T06:49:25;2.70;;;1.90;;
61330;SDS011;71993;52.478;-1.918;2023-09-12T06:51:56;4.00;;;2.17;;
61330;SDS011;71993;52.478;-1.918;2023-09-12T06:54:26;2.47;;;1.70;;
61330;SDS011;71993;52.478;-1.918;2023-09-12T06:56:57;2.85;;;1.77;;
61330;SDS011;71993;52.478;-1.918;2023-09-12T06:59:27;2.80;;;1.80;;
61330;SDS011;71993;52.478;-1.918;2023-09-12T07:02:00;2.78;;;1.52;;
61330;SDS011;71993;52.478;-1.918;2023-09-12T07:04:31;2.75;;;1.67;;
61330;SDS011;71993;52.478;-1.918;2023-09-12T07:07:01;2.90;;;1.60;;
61330;SDS011;71993;52.478;-1.918;2023-09-12T07:09:33;2.17;;;1.58;;
61330;SDS011;71993;52.478;-1.918;2023-09-12T07:12:03;2.28;;;1.60;;
61330;SDS011;71993;52.478;-1.918;2023-09-12T07:14:34;2.97;;;1.50;;
61330;SDS011;71993;52.478;-1.918;2023-09-12T07:17:08;2.30;;;1.50;;
61330;SDS011;71993;52.478;-1.918;2023-09-12T07:19:38;1.90;;;1.58;;
61330;SDS011;71993;52.478;-1.918;2023-09-12T07:22:09;1.70;;;1.50;;
61330;SDS011;71993;52.478;-1.918;2023-09-12T07:24:39;2.05;;;1.52;;
61330;SDS011;71993;52.478;-1.918;2023-09-12T07:27:09;3.30;;;1.40;;
61330;SDS011;71993;52.478;-1.918;2023-09-12T07:29:40;1.70;;;1.40;;
61330;SDS011;71993;52.478;-1.918;2023-09-12T07:32:13;2.28;;;1.48;;
61330;SDS011;71993;52.478;-1.918;2023-09-12T07:34:44;2.25;;;1.40;;
61330;SDS011;71993;52.478;-1.918;2023-09-12T07:37:16;2.20;;;1.30;;
61330;SDS011;71993;52.478;-1.918;2023-09-12T07:39:47;1.75;;;1.40;;
61330;SDS011;71993;52.478;-1.918;2023-09-12T07:42:21;3.05;;;1.40;;
61330;SDS011;71993;52.478;-1.918;2023-09-12T07:44:52;6.93;;;1.42;;
61330;SDS011;71993;52.478;-1.918;2023-09-12T07:47:25;2.60;;;1.35;;
61330;SDS011;71993;52.478;-1.918;2023-09-12T07:49:55;3.97;;;1.38;;
61330;SDS011;71993;52.478;-1.918;2023-09-12T07:52:28;1.85;;;1.30;;
61330;SDS011;71993;52.478;-1.918;2023-09-12T07:54:59;2.13;;;1.30;;
61330;SDS011;71993;52.478;-1.918;2023-09-12T07:57:29;1.50;;;1.23;;
61330;SDS011;71993;52.478;-1.918;2023-09-12T08:00:00;4.82;;;1.50;;
61330;SDS011;71993;52.478;-1.918;2023-09-12T08:02:41;2.15;;;1.40;;
61330;SDS011;71993;52.478;-1.918;2023-09-12T08:05:12;1.60;;;1.40;;
61330;SDS011;71993;52.478;-1.918;2023-09-12T08:07:42;2.17;;;1.50;;
61330;SDS011;71993;52.478;-1.918;2023-09-12T08:10:13;1.60;;;1.20;;
61330;SDS011;71993;52.478;-1.918;2023-09-12T08:12:44;1.85;;;1.30;;
61330;SDS011;71993;52.478;-1.918;2023-09-12T08:15:14;2.00;;;1.33;;
61330;SDS011;71993;52.478;-1.918;2023-09-12T08:17:47;2.78;;;1.55;;
61330;SDS011;71993;52.478;-1.918;2023-09-12T08:20:19;1.58;;;1.30;;
61330;SDS011;71993;52.478;-1.918;2023-09-12T08:22:50;2.30;;;1.35;;
61330;SDS011;71993;52.478;-1.918;2023-09-12T08:25:20;1.83;;;1.35;;
61330;SDS011;71993;52.478;-1.918;2023-09-12T08:27:52;1.90;;;1.20;;
61330;SDS011;71993;52.478;-1.918;2023-09-12T08:30:22;1.80;;;1.23;;
61330;SDS011;71993;52.478;-1.918;2023-09-12T08:32:55;1.85;;;1.40;;
61330;SDS011;71993;52.478;-1.918;2023-09-12T08:35:26;1.92;;;1.40;;
61330;SDS011;71993;52.478;-1.918;2023-09-12T08:37:56;2.10;;;1.33;;
61330;SDS011;71993;52.478;-1.918;2023-09-12T08:40:27;1.95;;;1.40;;
61330;SDS011;71993;52.478;-1.918;2023-09-12T08:42:58;2.17;;;1.40;;
61330;SDS011;71993;52.478;-1.918;2023-09-12T08:45:29;1.75;;;1.50;;
61330;SDS011;71993;52.478;-1.918;2023-09-12T08:48:02;1.95;;;1.30;;
61330;SDS011;71993;52.478;-1.918;2023-09-12T08:50:34;1.65;;;1.20;;
61330;SDS011;71993;52.478;-1.918;2023-09-12T08:53:04;1.88;;;1.10;;
61330;SDS011;71993;52.478;-1.918;2023-09-12T08:55:35;1.55;;;1.30;;
61330;SDS011;71993;52.478;-1.918;2023-09-12T08:58:05;2.30;;;1.10;;
61330;SDS011;71993;52.478;-1.918;2023-09-12T09:00:36;1.90;;;1.17;;
61330;SDS011;71993;52.478;-1.918;2023-09-12T09:03:09;1.58;;;1.30;;
61330;SDS011;71993;52.478;-1.918;2023-09-12T09:05:40;1.30;;;1.20;;
61330;SDS011;71993;52.478;-1.918;2023-09-12T09:08:12;1.60;;;1.20;;
61330;SDS011;71993;52.478;-1.918;2023-09-12T09:10:54;2.10;;;1.02;;
61330;SDS011;71993;52.478;-1.918;2023-09-12T09:13:25;1.23;;;0.95;;
61330;SDS011;71993;52.478;-1.918;2023-09-12T09:18:57;0.90;;;0.90;;
61330;SDS011;71993;52.478;-1.918;2023-09-12T09:21:29;1.17;;;1.08;;
61330;SDS011;71993;52.478;-1.918;2023-09-12T09:24:01;1.83;;;1.08;;
61330;SDS011;71993;52.478;-1.918;2023-09-12T09:26:41;1.80;;;1.30;;
61330;SDS011;71993;52.478;-1.918;2023-09-12T09:29:13;1.13;;;1.02;;
61330;SDS011;71993;52.478;-1.918;2023-09-12T09:31:44;1.20;;;1.10;;
61330;SDS011;71993;52.478;-1.918;2023-09-12T09:34:18;1.38;;;1.02;;
61330;SDS011;71993;52.478;-1.918;2023-09-12T09:36:51;1.23;;;1.00;;
61330;SDS011;71993;52.478;-1.918;2023-09-12T09:39:23;1.63;;;1.15;;
61330;SDS011;71993;52.478;-1.918;2023-09-12T09:41:54;1.30;;;1.00;;
61330;SDS011;71993;52.478;-1.918;2023-09-12T09:44:25;1.52;;;1.10;;
61330;SDS011;71993;52.478;-1.918;2023-09-12T09:46:59;1.75;;;1.10;;
61330;SDS011;71993;52.478;-1.918;2023-09-12T09:49:33;1.20;;;1.00;;
61330;SDS011;71993;52.478;-1.918;2023-09-12T09:52:04;1.10;;;0.98;;
61330;SDS011;71993;52.478;-1.918;2023-09-12T09:54:35;1.20;;;1.10;;
61330;SDS011;71993;52.478;-1.918;2023-09-12T09:57:06;1.23;;;0.90;;
61330;SDS011;71993;52.478;-1.918;2023-09-12T09:59:36;1.10;;;1.00;;
61330;SDS011;71993;52.478;-1.918;2023-09-12T10:02:07;1.77;;;1.00;;
61330;SDS011;71993;52.478;-1.918;2023-09-12T10:04:44;2.45;;;0.77;;
61330;SDS011;71993;52.478;-1.918;2023-09-12T10:07:15;1.65;;;1.00;;
61330;SDS011;71993;52.478;-1.918;2023-09-12T10:09:46;1.10;;;0.90;;
61330;SDS011;71993;52.478;-1.918;2023-09-12T10:12:16;1.10;;;1.00;;
61330;SDS011;71993;52.478;-1.918;2023-09-12T10:14:47;1.00;;;0.80;;
61330;SDS011;71993;52.478;-1.918;2023-09-12T10:17:18;1.05;;;0.95;;
61330;SDS011;71993;52.478;-1.918;2023-09-12T10:19:54;1.05;;;0.90;;
61330;SDS011;71993;52.478;-1.918;2023-09-12T10:22:28;1.58;;;0.90;;
61330;SDS011;71993;52.478;-1.918;2023-09-12T10:25:02;1.88;;;1.00;;
61330;SDS011;71993;52.478;-1.918;2023-09-12T10:27:33;1.02;;;0.90;;
61330;SDS011;71993;52.478;-1.918;2023-09-12T10:30:04;1.42;;;0.90;;
61330;SDS011;71993;52.478;-1.918;2023-09-12T10:32:35;1.42;;;0.80;;
61330;SDS011;71993;52.478;-1.918;2023-09-12T10:35:09;1.00;;;0.90;;
61330;SDS011;71993;52.478;-1.918;2023-09-12T10:37:41;1.52;;;1.00;;
61330;SDS011;71993;52.478;-1.918;2023-09-12T10:40:12;1.40;;;0.88;;
61330;SDS011;71993;52.478;-1.918;2023-09-12T10:42:43;1.17;;;1.00;;
61330;SDS011;71993;52.478;-1.918;2023-09-12T10:45:14;1.00;;;0.80;;
61330;SDS011;71993;52.478;-1.918;2023-09-12T10:47:45;1.83;;;0.80;;
61330;SDS011;71993;52.478;-1.918;2023-09-12T10:50:18;1.13;;;0.73;;
61330;SDS011;71993;52.478;-1.918;2023-09-12T10:52:49;1.25;;;0.90;;
61330;SDS011;71993;52.478;-1.918;2023-09-12T10:55:20;2.65;;;1.90;;
61330;SDS011;71993;52.478;-1.918;2023-09-12T10:58:00;2.30;;;2.10;;
61330;SDS011;71993;52.478;-1.918;2023-09-12T11:00:30;3.90;;;2.10;;
61330;SDS011;71993;52.478;-1.918;2023-09-12T11:05:53;3.70;;;2.70;;
61330;SDS011;71993;52.478;-1.918;2023-09-12T11:08:24;2.95;;;2.65;;
61330;SDS011;71993;52.478;-1.918;2023-09-12T11:13:41;3.33;;;3.03;;
61330;SDS011;71993;52.478;-1.918;2023-09-12T11:16:14;4.05;;;3.35;;
61330;SDS011;71993;52.478;-1.918;2023-09-12T11:21:34;3.65;;;3.20;;
61330;SDS011;71993;52.478;-1.918;2023-09-12T11:24:05;3.97;;;3.67;;
61330;SDS011;71993;52.478;-1.918;2023-09-12T11:26:35;4.05;;;3.75;;
61330;SDS011;71993;52.478;-1.918;2023-09-12T11:29:21;4.28;;;3.88;;
61330;SDS011;71993;52.478;-1.918;2023-09-12T11:31:53;4.35;;;4.05;;
61330;SDS011;71993;52.478;-1.918;2023-09-12T11:34:25;3.97;;;3.67;;
61330;SDS011;71993;52.478;-1.918;2023-09-12T11:36:59;4.20;;;3.88;;
61330;SDS011;71993;52.478;-1.918;2023-09-12T11:39:33;4.53;;;3.83;;
61330;SDS011;71993;52.478;-1.918;2023-09-12T11:42:03;4.70;;;4.20;;
61330;SDS011;71993;52.478;-1.918;2023-09-12T11:44:36;5.00;;;4.50;;
61330;SDS011;71993;52.478;-1.918;2023-09-12T11:47:07;5.13;;;4.60;;
61330;SDS011;71993;52.478;-1.918;2023-09-12T11:49:40;4.50;;;4.10;;
61330;SDS011;71993;52.478;-1.918;2023-09-12T11:52:13;4.70;;;4.30;;
61330;SDS011;71993;52.478;-1.918;2023-09-12T11:54:44;5.28;;;4.18;;
61330;SDS011;71993;52.478;-1.918;2023-09-12T11:57:15;3.55;;;2.90;;
61330;SDS011;71993;52.478;-1.918;2023-09-12T11:59:45;3.85;;;2.88;;
61330;SDS011;71993;52.478;-1.918;2023-09-12T12:02:16;2.30;;;2.10;;
61330;SDS011;71993;52.478;-1.918;2023-09-12T12:04:47;2.10;;;1.90;;
61330;SDS011;71993;52.478;-1.918;2023-09-12T12:07:20;2.08;;;1.52;;
61330;SDS011;71993;52.478;-1.918;2023-09-12T12:09:51;1.75;;;1.45;;
61330;SDS011;71993;52.478;-1.918;2023-09-12T12:12:21;1.98;;;1.45;;
61330;SDS011;71993;52.478;-1.918;2023-09-12T12:14:52;1.80;;;1.40;;
61330;SDS011;71993;52.478;-1.918;2023-09-12T12:17:23;2.92;;;1.40;;
61330;SDS011;71993;52.478;-1.918;2023-09-12T12:19:53;1.25;;;1.10;;
61330;SDS011;71993;52.478;-1.918;2023-09-12T12:22:26;1.70;;;1.27;;
61330;SDS011;71993;52.478;-1.918;2023-09-12T12:24:57;1.20;;;1.10;;
61330;SDS011;71993;52.478;-1.918;2023-09-12T12:27:36;1.65;;;1.20;;
61330;SDS011;71993;52.478;-1.918;2023-09-12T12:30:07;1.73;;;1.30;;
61330;SDS011;71993;52.478;-1.918;2023-09-12T12:32:39;1.10;;;1.00;;
61330;SDS011;71993;52.478;-1.918;2023-09-12T12:35:10;1.40;;;1.10;;
61330;SDS011;71993;52.478;-1.918;2023-09-12T12:37:50;1.02;;;1.00;;
61330;SDS011;71993;52.478;-1.918;2023-09-12T12:40:21;2.95;;;1.00;;
61330;SDS011;71993;52.478;-1.918;2023-09-12T12:42:52;1.52;;;1.05;;
61330;SDS011;71993;52.478;-1.918;2023-09-12T12:45:23;1.48;;;1.05;;
61330;SDS011;71993;52.478;-1.918;2023-09-12T12:47:57;1.40;;;1.00;;
61330;SDS011;71993;52.478;-1.918;2023-09-12T12:50:28;1.88;;;1.00;;
61330;SDS011;71993;52.478;-1.918;2023-09-12T12:53:01;1.75;;;1.00;;
61330;SDS011;71993;52.478;-1.918;2023-09-12T12:55:31;1.20;;;0.98;;
61330;SDS011;71993;52.478;-1.918;2023-09-12T12:58:03;1.05;;;0.80;;
61330;SDS011;71993;52.478;-1.918;2023-09-12T13:00:33;1.85;;;1.00;;
61330;SDS011;71993;52.478;-1.918;2023-09-12T13:03:04;0.90;;;0.90;;
61330;SDS011;71993;52.478;-1.918;2023-09-12T13:05:35;1.20;;;0.88;;
61330;SDS011;71993;52.478;-1.918;2023-09-12T13:08:10;1.15;;;0.80;;
61330;SDS011;71993;52.478;-1.918;2023-09-12T13:10:41;0.90;;;0.80;;
61330;SDS011;71993;52.478;-1.918;2023-09-12T13:13:11;1.35;;;0.90;;
61330;SDS011;71993;52.478;-1.918;2023-09-12T13:15:42;1.33;;;1.00;;
61330;SDS011;71993;52.478;-1.918;2023-09-12T13:18:12;1.40;;;0.93;;
61330;SDS011;71993;52.478;-1.918;2023-09-12T13:20:43;1.48;;;0.82;;
61330;SDS011;71993;52.478;-1.918;2023-09-12T13:23:16;0.70;;;0.70;;
61330;SDS011;71993;52.478;-1.918;2023-09-12T13:25:46;1.05;;;0.80;;
61330;SDS011;71993;52.478;-1.918;2023-09-12T13:28:17;0.80;;;0.80;;
61330;SDS011;71993;52.478;-1.918;2023-09-12T13:30:48;2.53;;;0.80;;
61330;SDS011;71993;52.478;-1.918;2023-09-12T13:33:18;1.65;;;0.75;;
61330;SDS011;71993;52.478;-1.918;2023-09-12T13:35:49;1.10;;;0.80;;
61330;SDS011;71993;52.478;-1.918;2023-09-12T13:38:22;0.90;;;0.60;;
61330;SDS011;71993;52.478;-1.918;2023-09-12T13:40:53;0.70;;;0.70;;
61330;SDS011;71993;52.478;-1.918;2023-09-12T13:43:23;1.35;;;0.70;;
61330;SDS011;71993;52.478;-1.918;2023-09-12T13:45:55;1.98;;;0.77;;
61330;SDS011;71993;52.478;-1.918;2023-09-12T13:48:26;1.13;;;0.85;;
61330;SDS011;71993;52.478;-1.918;2023-09-12T13:50:57;0.80;;;0.63;;
61330;SDS011;71993;52.478;-1.918;2023-09-12T13:53:30;0.88;;;0.70;;
61330;SDS011;71993;52.478;-1.918;2023-09-12T13:56:01;1.00;;;0.70;;
61330;SDS011;71993;52.478;-1.918;2023-09-12T13:58:31;1.08;;;0.60;;
61330;SDS011;71993;52.478;-1.918;2023-09-12T14:01:02;1.75;;;0.70;;
61330;SDS011;71993;52.478;-1.918;2023-09-12T14:03:32;1.20;;;0.80;;
61330;SDS011;71993;52.478;-1.918;2023-09-12T14:06:03;0.90;;;0.80;;
61330;SDS011;71993;52.478;-1.918;2023-09-12T14:08:36;1.58;;;0.90;;
61330;SDS011;71993;52.478;-1.918;2023-09-12T14:11:07;1.00;;;0.90;;
61330;SDS011;71993;52.478;-1.918;2023-09-12T14:13:37;1.30;;;0.82;;
61330;SDS011;71993;52.478;-1.918;2023-09-12T14:16:07;1.38;;;1.00;;
61330;SDS011;71993;52.478;-1.918;2023-09-12T14:18:38;1.17;;;0.80;;
61330;SDS011;71993;52.478;-1.918;2023-09-12T14:21:08;0.70;;;0.70;;
61330;SDS011;71993;52.478;-1.918;2023-09-12T14:23:41;1.58;;;0.70;;
61330;SDS011;71993;52.478;-1.918;2023-09-12T14:26:12;1.10;;;0.80;;
61330;SDS011;71993;52.478;-1.918;2023-09-12T14:28:42;2.70;;;0.90;;
61330;SDS011;71993;52.478;-1.918;2023-09-12T14:31:13;0.95;;;0.80;;
61330;SDS011;71993;52.478;-1.918;2023-09-12T14:33:44;1.58;;;0.88;;
61330;SDS011;71993;52.478;-1.918;2023-09-12T14:36:14;1.92;;;0.80;;
61330;SDS011;71993;52.478;-1.918;2023-09-12T14:38:47;1.92;;;0.90;;
61330;SDS011;71993;52.478;-1.918;2023-09-12T14:41:18;0.93;;;0.80;;
61330;SDS011;71993;52.478;-1.918;2023-09-12T14:43:48;1.10;;;0.73;;
61330;SDS011;71993;52.478;-1.918;2023-09-12T14:46:19;2.20;;;0.80;;
61330;SDS011;71993;52.478;-1.918;2023-09-12T14:48:49;1.58;;;0.80;;
61330;SDS011;71993;52.478;-1.918;2023-09-12T14:51:20;1.13;;;0.80;;
61330;SDS011;71993;52.478;-1.918;2023-09-12T14:53:53;2.22;;;0.70;;
61330;SDS011;71993;52.478;-1.918;2023-09-12T14:56:23;1.15;;;0.90;;
61330;SDS011;71993;52.478;-1.918;2023-09-12T14:58:54;1.52;;;0.75;;
61330;SDS011;71993;52.478;-1.918;2023-09-12T15:01:24;1.10;;;0.90;;
61330;SDS011;71993;52.478;-1.918;2023-09-12T15:03:55;1.10;;;1.00;;
61330;SDS011;71993;52.478;-1.918;2023-09-12T15:06:25;1.13;;;0.80;;
61330;SDS011;71993;52.478;-1.918;2023-09-12T15:09:03;1.00;;;0.70;;